Time;durP1;ratioP1;P1;durP2;ratioP2;P2;SDS_P1;SDS_P2;PMS_P1;PMS_P2;Temp;Humidity;BMP_temperature;BMP_pressure;BME280_temperature;BME280_humidity;BME280_pressure;Samples;Min_cycle;Max_cycle;Signal;HPM_P1;HPM_P2
2023/07/23 00:01:32;;;;;;;16.75;12.43;;;16.00;99.90;;;;;;5070463;28;20021;-54
2023/07/23 00:03:57;;;;;;;16.52;12.88;;;16.00;99.90;;;;;;5070345;28;20070;-54
2023/07/23 00:06:23;;;;;;;14.68;12.35;;;16.00;99.90;;;;;;5070708;28;20465;-54
2023/07/23 00:08:48;;;;;;;18.10;12.80;;;15.90;99.90;;;;;;5070675;28;20060;-54
2023/07/23 00:11:14;;;;;;;17.90;13.20;;;15.90;99.90;;;;;;5070536;28;20034;-54
2023/07/23 00:13:39;;;;;;;17.52;13.23;;;15.90;99.90;;;;;;5069917;28;20435;-54
2023/07/23 00:16:05;;;;;;;19.65;12.48;;;15.90;99.90;;;;;;5069137;28;20036;-54
2023/07/23 00:18:30;;;;;;;16.60;12.57;;;15.90;99.90;;;;;;5070416;28;20198;-54
2023/07/23 00:20:56;;;;;;;18.25;12.80;;;15.80;99.90;;;;;;5070375;28;20028;-54
2023/07/23 00:23:21;;;;;;;27.33;15.70;;;15.80;99.90;;;;;;5069770;28;20024;-54
2023/07/23 00:25:47;;;;;;;15.30;13.50;;;15.80;99.90;;;;;;5070250;28;20016;-54
2023/07/23 00:28:13;;;;;;;18.85;15.20;;;15.80;99.90;;;;;;5070137;28;20027;-54
2023/07/23 00:30:38;;;;;;;19.50;15.98;;;15.80;99.90;;;;;;5070297;28;20035;-54
2023/07/23 00:33:04;;;;;;;16.73;13.18;;;15.80;99.90;;;;;;5069816;28;20012;-54
2023/07/23 00:35:30;;;;;;;15.63;12.32;;;15.70;99.90;;;;;;5070718;28;20111;-54
2023/07/23 00:37:55;;;;;;;18.85;15.23;;;15.70;99.90;;;;;;5070034;28;20170;-54
2023/07/23 00:40:21;;;;;;;19.85;15.60;;;15.60;99.90;;;;;;5069933;28;20469;-54
2023/07/23 00:42:47;;;;;;;17.98;13.68;;;15.60;99.90;;;;;;5068198;28;20035;-54
2023/07/23 00:45:13;;;;;;;20.15;15.77;;;15.60;99.90;;;;;;5069984;28;20521;-54
2023/07/23 00:47:39;;;;;;;18.70;15.70;;;15.60;99.90;;;;;;5070074;28;20154;-54
2023/07/23 00:50:05;;;;;;;19.27;15.38;;;15.60;99.90;;;;;;5069925;28;20473;-54
2023/07/23 00:52:31;;;;;;;19.35;14.13;;;15.60;99.90;;;;;;5069457;28;20065;-54
2023/07/23 00:54:56;;;;;;;18.83;14.60;;;15.50;99.90;;;;;;5069619;28;20036;-54
2023/07/23 00:57:22;;;;;;;19.70;14.77;;;15.50;99.90;;;;;;5069510;28;20025;-54
2023/07/23 00:59:48;;;;;;;22.33;16.63;;;15.50;99.90;;;;;;5069582;28;20043;-54
2023/07/23 01:02:13;;;;;;;18.52;15.13;;;15.50;99.90;;;;;;5068628;28;20008;-54
2023/07/23 01:04:39;;;;;;;21.48;16.83;;;15.60;99.90;;;;;;5068454;28;20371;-54
2023/07/23 01:07:06;;;;;;;18.65;14.95;;;15.60;99.90;;;;;;5067832;28;20036;-54
2023/07/23 01:09:32;;;;;;;17.52;14.60;;;15.70;99.90;;;;;;5069375;28;20043;-55
2023/07/23 01:11:59;;;;;;;20.65;15.73;;;15.70;99.90;;;;;;5067669;28;20392;-55
2023/07/23 01:14:24;;;;;;;19.73;14.48;;;15.70;99.90;;;;;;5069058;28;20017;-54
2023/07/23 01:16:51;;;;;;;20.80;15.77;;;15.70;99.90;;;;;;5069041;28;20046;-54
2023/07/23 01:19:16;;;;;;;20.55;16.35;;;15.70;99.90;;;;;;5069026;28;20492;-54
2023/07/23 01:21:42;;;;;;;18.52;14.77;;;15.60;99.90;;;;;;5068904;28;20021;-54
2023/07/23 01:24:07;;;;;;;26.83;17.85;;;15.60;99.90;;;;;;5068804;28;20025;-53
2023/07/23 01:26:33;;;;;;;21.38;15.43;;;15.60;99.90;;;;;;5069054;28;20031;-54
2023/07/23 01:28:59;;;;;;;19.17;14.60;;;15.50;99.90;;;;;;5064784;28;20464;-54
2023/07/23 01:31:24;;;;;;;23.13;17.83;;;15.50;99.90;;;;;;5048871;28;20116;-54
2023/07/23 01:33:51;;;;;;;20.08;14.85;;;15.50;99.90;;;;;;5048486;28;20485;-54
2023/07/23 01:36:17;;;;;;;29.38;17.98;;;15.50;99.90;;;;;;5048882;28;20103;-54
2023/07/23 01:38:42;;;;;;;22.98;15.90;;;15.40;99.90;;;;;;5048731;28;20321;-54
2023/07/23 01:41:08;;;;;;;24.13;16.88;;;15.40;99.90;;;;;;5048833;28;20033;-54
2023/07/23 01:43:35;;;;;;;18.02;14.27;;;15.50;99.90;;;;;;5048490;28;20395;-54
2023/07/23 01:46:00;;;;;;;21.02;16.00;;;15.50;99.90;;;;;;5047621;28;20078;-53
2023/07/23 01:48:26;;;;;;;19.65;15.13;;;15.50;99.90;;;;;;5048694;28;20405;-53
2023/07/23 01:50:52;;;;;;;23.65;16.48;;;15.40;99.90;;;;;;5048338;28;20029;-53
2023/07/23 01:53:18;;;;;;;24.35;17.38;;;15.40;99.90;;;;;;5048018;28;20031;-54
2023/07/23 01:55:43;;;;;;;19.92;16.65;;;15.40;99.90;;;;;;5048587;28;20240;-55
2023/07/23 01:58:09;;;;;;;21.80;15.70;;;15.40;99.90;;;;;;5048392;28;20544;-53
2023/07/23 02:00:34;;;;;;;21.58;16.15;;;15.40;99.90;;;;;;5048268;28;20033;-54
2023/07/23 02:03:00;;;;;;;24.58;17.27;;;15.40;99.90;;;;;;5048173;28;20028;-53
2023/07/23 02:05:25;;;;;;;24.48;17.05;;;15.30;99.90;;;;;;5047359;28;20105;-54
2023/07/23 02:07:51;;;;;;;22.60;16.67;;;15.30;99.90;;;;;;5048295;28;20068;-54
2023/07/23 02:10:20;;;;;;;20.92;15.95;;;15.30;99.90;;;;;;5048320;28;20029;-53
2023/07/23 02:12:46;;;;;;;20.75;16.42;;;15.30;99.90;;;;;;5047468;28;20075;-53
2023/07/23 02:15:12;;;;;;;19.88;14.48;;;15.20;99.90;;;;;;5047996;28;20025;-54
2023/07/23 02:17:37;;;;;;;19.40;15.05;;;15.20;99.90;;;;;;5047974;28;20021;-53
2023/07/23 02:20:04;;;;;;;22.10;16.27;;;15.20;99.90;;;;;;5048080;28;20021;-53
2023/07/23 02:22:30;;;;;;;23.55;16.10;;;15.20;99.90;;;;;;5046931;28;20422;-53
2023/07/23 02:24:55;;;;;;;23.65;16.50;;;15.10;99.90;;;;;;5048472;28;20029;-53
2023/07/23 02:27:21;;;;;;;24.85;16.83;;;15.20;99.90;;;;;;5048471;28;20029;-53
2023/07/23 02:29:47;;;;;;;20.85;15.45;;;15.10;99.90;;;;;;5047993;28;20084;-53
2023/07/23 02:32:12;;;;;;;20.60;15.95;;;15.20;99.90;;;;;;5042258;28;20101;-55
2023/07/23 02:34:38;;;;;;;23.20;16.40;;;15.20;99.90;;;;;;5048311;28;20089;-54
2023/07/23 02:37:03;;;;;;;21.02;14.45;;;15.10;99.90;;;;;;5047914;28;20060;-54
2023/07/23 02:39:30;;;;;;;19.33;15.48;;;15.20;99.90;;;;;;5046793;28;20021;-55
2023/07/23 02:41:55;;;;;;;18.92;15.10;;;15.10;99.90;;;;;;5044187;28;20108;-54
2023/07/23 02:44:21;;;;;;;19.90;15.00;;;15.20;99.90;;;;;;5047705;28;20100;-54
2023/07/23 02:46:47;;;;;;;17.80;13.93;;;15.10;99.90;;;;;;5047797;28;20021;-54
2023/07/23 02:49:12;;;;;;;18.83;14.70;;;15.10;99.90;;;;;;5047730;28;20080;-54
2023/07/23 02:51:38;;;;;;;21.25;15.15;;;15.10;99.90;;;;;;5047292;28;20036;-54
2023/07/23 02:54:03;;;;;;;23.58;15.27;;;15.20;99.90;;;;;;5041801;28;20025;-54
2023/07/23 02:56:29;;;;;;;23.17;16.23;;;15.20;99.90;;;;;;5042278;28;20222;-54
2023/07/23 02:58:54;;;;;;;19.50;14.63;;;15.20;99.90;;;;;;5040053;28;20140;-54
2023/07/23 03:01:20;;;;;;;24.52;16.70;;;15.10;99.90;;;;;;5047367;28;20478;-54
2023/07/23 03:03:47;;;;;;;21.90;16.30;;;15.20;99.90;;;;;;5047125;28;20029;-54
2023/07/23 03:06:14;;;;;;;26.10;17.30;;;15.10;99.90;;;;;;5047840;28;20032;-55
2023/07/23 03:08:39;;;;;;;25.17;17.25;;;15.10;99.90;;;;;;5047371;28;20021;-55
2023/07/23 03:11:05;;;;;;;24.30;17.50;;;15.10;99.90;;;;;;5047360;28;20051;-54
2023/07/23 03:13:31;;;;;;;23.08;16.58;;;15.00;99.90;;;;;;5040200;28;20036;-54
2023/07/23 03:15:56;;;;;;;25.90;18.45;;;15.10;99.90;;;;;;5040200;28;20041;-54
2023/07/23 03:18:22;;;;;;;27.25;16.65;;;15.10;99.90;;;;;;5041384;28;20394;-54
2023/07/23 03:20:47;;;;;;;24.48;17.42;;;15.10;99.90;;;;;;5037813;28;20021;-54
2023/07/23 03:23:13;;;;;;;22.05;16.33;;;15.00;99.90;;;;;;5041360;28;20043;-54
2023/07/23 03:25:38;;;;;;;22.40;15.63;;;15.10;99.90;;;;;;5060905;28;20024;-54
2023/07/23 03:28:04;;;;;;;25.73;17.65;;;15.10;99.90;;;;;;5051731;28;20104;-54
2023/07/23 03:30:29;;;;;;;20.98;16.65;;;15.00;99.90;;;;;;5051327;28;20455;-54
2023/07/23 03:32:55;;;;;;;20.33;16.13;;;15.00;99.90;;;;;;5050804;28;20036;-54
2023/07/23 03:35:21;;;;;;;22.45;16.17;;;15.00;99.90;;;;;;5049568;28;20021;-54
2023/07/23 03:37:48;;;;;;;19.52;13.93;;;15.00;99.90;;;;;;5050943;28;20123;-54
2023/07/23 03:40:14;;;;;;;19.80;14.48;;;15.10;99.90;;;;;;5050940;28;20068;-54
2023/07/23 03:42:40;;;;;;;20.98;15.18;;;15.10;99.90;;;;;;5050823;28;20495;-54
2023/07/23 03:45:06;;;;;;;24.60;16.90;;;15.10;99.90;;;;;;5050933;28;20033;-54
2023/07/23 03:47:31;;;;;;;25.13;19.42;;;15.10;99.90;;;;;;5050712;28;20035;-54
2023/07/23 03:49:57;;;;;;;24.23;17.25;;;15.10;99.90;;;;;;5050905;28;20482;-54
2023/07/23 03:52:23;;;;;;;31.00;17.27;;;15.00;99.90;;;;;;5048820;28;20036;-54
2023/07/23 03:54:49;;;;;;;25.08;18.42;;;15.00;99.90;;;;;;5050855;28;20445;-54
2023/07/23 03:57:14;;;;;;;27.15;18.73;;;15.10;99.90;;;;;;5050652;28;20360;-55
2023/07/23 03:59:42;;;;;;;26.33;18.30;;;15.00;99.90;;;;;;5050487;28;20025;-54
2023/07/23 04:02:08;;;;;;;20.42;15.52;;;15.00;99.90;;;;;;5050528;28;20017;-55
2023/07/23 04:04:35;;;;;;;19.88;15.38;;;15.00;99.90;;;;;;5050548;28;20009;-54
2023/07/23 04:07:00;;;;;;;25.67;17.48;;;15.10;99.90;;;;;;5050600;28;20184;-54
2023/07/23 04:09:26;;;;;;;25.73;17.73;;;15.10;99.90;;;;;;5050402;28;20528;-54
2023/07/23 04:11:51;;;;;;;23.27;17.10;;;15.00;99.90;;;;;;5050440;28;20021;-54
2023/07/23 04:14:17;;;;;;;27.63;19.23;;;15.00;99.90;;;;;;5050072;28;20025;-54
2023/07/23 04:16:42;;;;;;;25.65;17.08;;;15.00;99.90;;;;;;5050670;28;20479;-54
2023/07/23 04:19:08;;;;;;;25.33;17.77;;;15.00;99.90;;;;;;5050199;28;20402;-54
2023/07/23 04:21:33;;;;;;;27.50;17.40;;;15.00;99.90;;;;;;5050484;28;20052;-54
2023/07/23 04:24:00;;;;;;;26.10;19.13;;;15.00;99.90;;;;;;5050398;28;20117;-54
2023/07/23 04:26:30;;;;;;;24.92;17.42;;;15.00;99.90;;;;;;5046126;28;20590;-55
2023/07/23 04:28:56;;;;;;;27.13;18.20;;;15.00;99.90;;;;;;5050241;28;20025;-54
2023/07/23 04:31:21;;;;;;;24.15;18.30;;;15.00;99.90;;;;;;5050195;28;20033;-55
2023/07/23 04:33:47;;;;;;;23.23;17.33;;;15.00;99.90;;;;;;5049537;28;20074;-54
2023/07/23 04:36:13;;;;;;;24.88;18.35;;;15.00;99.90;;;;;;5049916;28;20100;-54
2023/07/23 04:38:40;;;;;;;28.73;18.73;;;15.10;99.90;;;;;;5049812;28;20031;-54
2023/07/23 04:41:06;;;;;;;21.52;15.50;;;15.10;99.90;;;;;;5049809;28;20029;-55
2023/07/23 04:43:34;;;;;;;25.55;17.65;;;15.20;99.90;;;;;;5049439;28;20071;-54
2023/07/23 04:45:59;;;;;;;26.58;16.92;;;15.20;99.90;;;;;;5049953;28;20049;-55
2023/07/23 04:48:25;;;;;;;21.30;15.55;;;15.30;99.90;;;;;;5049861;28;20095;-55
2023/07/23 04:51:02;;;;;;;27.27;17.95;;;15.30;99.90;;;;;;5049638;28;20021;-55
2023/07/23 04:53:27;;;;;;;21.92;16.38;;;15.40;99.90;;;;;;5049386;28;20024;-55
2023/07/23 04:55:54;;;;;;;23.42;15.70;;;15.40;99.90;;;;;;5049921;28;20338;-54
2023/07/23 04:58:20;;;;;;;25.27;15.02;;;15.40;99.90;;;;;;5050063;28;20033;-55
2023/07/23 05:00:46;;;;;;;23.00;15.80;;;15.40;99.90;;;;;;5048663;28;20027;-55
2023/07/23 05:03:12;;;;;;;18.95;13.77;;;15.40;99.90;;;;;;5049309;28;20190;-55
2023/07/23 05:05:41;;;;;;;22.20;15.60;;;15.50;99.90;;;;;;5049768;28;20063;-54
2023/07/23 05:08:07;;;;;;;20.77;14.35;;;15.50;99.90;;;;;;5049581;28;20382;-54
2023/07/23 05:10:32;;;;;;;21.70;14.63;;;15.50;99.90;;;;;;5049420;28;20025;-54
2023/07/23 05:12:58;;;;;;;21.33;13.65;;;15.60;99.90;;;;;;5049162;28;20251;-54
2023/07/23 05:15:23;;;;;;;16.58;13.63;;;15.60;99.90;;;;;;5049361;28;20032;-54
2023/07/23 05:17:49;;;;;;;15.65;11.55;;;15.70;99.90;;;;;;5049264;28;20080;-54
2023/07/23 05:20:15;;;;;;;21.45;14.55;;;15.80;99.90;;;;;;5047662;28;20305;-55
2023/07/23 05:22:41;;;;;;;16.52;11.98;;;15.80;99.90;;;;;;5048977;28;20012;-54
2023/07/23 05:25:07;;;;;;;18.95;12.65;;;15.80;99.90;;;;;;5049346;28;20541;-55
2023/07/23 05:27:33;;;;;;;15.25;11.88;;;15.90;99.90;;;;;;5049255;28;20017;-54
2023/07/23 05:29:59;;;;;;;14.68;10.75;;;15.90;99.90;;;;;;5049400;28;20098;-54
2023/07/23 05:32:25;;;;;;;15.63;11.57;;;16.00;99.90;;;;;;5048569;28;20060;-54
2023/07/23 05:34:50;;;;;;;14.65;11.93;;;16.00;99.90;;;;;;5048895;28;20081;-54
2023/07/23 05:37:16;;;;;;;17.38;11.77;;;16.00;99.90;;;;;;5048702;28;20029;-54
2023/07/23 05:39:41;;;;;;;18.13;11.30;;;16.00;99.90;;;;;;5048646;28;20028;-55
2023/07/23 05:42:07;;;;;;;16.20;11.50;;;16.00;99.90;;;;;;5047494;28;20031;-54
2023/07/23 05:44:32;;;;;;;18.63;10.82;;;16.00;99.90;;;;;;5048550;28;20027;-55
2023/07/23 05:46:58;;;;;;;17.15;11.63;;;16.10;99.90;;;;;;5048321;28;20021;-56
2023/07/23 05:49:25;;;;;;;19.13;11.02;;;16.10;99.90;;;;;;5048201;28;20276;-55
2023/07/23 05:51:51;;;;;;;12.52;10.50;;;16.10;99.90;;;;;;5040581;28;20307;-56
2023/07/23 05:54:17;;;;;;;13.05;9.70;;;16.20;99.90;;;;;;5040667;28;20017;-56
2023/07/23 05:56:42;;;;;;;13.20;10.20;;;16.30;99.90;;;;;;5048440;28;20580;-56
2023/07/23 05:59:08;;;;;;;17.80;10.52;;;16.30;99.90;;;;;;5043981;28;20095;-56
2023/07/23 06:01:33;;;;;;;15.50;10.35;;;16.30;99.90;;;;;;5042532;28;20025;-56
2023/07/23 06:03:59;;;;;;;16.92;9.82;;;16.30;99.90;;;;;;5045159;28;20055;-56
2023/07/23 06:06:24;;;;;;;15.52;9.85;;;16.30;99.90;;;;;;5047182;28;20037;-56
2023/07/23 06:08:50;;;;;;;15.27;9.65;;;16.30;99.90;;;;;;5045212;28;20041;-56
2023/07/23 06:11:16;;;;;;;13.70;10.07;;;16.40;99.90;;;;;;5042591;28;20103;-56
2023/07/23 06:13:41;;;;;;;15.05;9.85;;;16.30;99.90;;;;;;5042113;28;20020;-57
2023/07/23 06:16:07;;;;;;;11.20;7.97;;;16.30;99.90;;;;;;5044821;28;20029;-57
2023/07/23 06:18:35;;;;;;;11.45;9.32;;;16.30;99.90;;;;;;5048718;28;20391;-57
2023/07/23 06:21:04;;;;;;;17.77;8.85;;;16.40;99.90;;;;;;5048741;28;20481;-57
2023/07/23 06:23:30;;;;;;;15.30;9.55;;;16.40;99.90;;;;;;5048635;28;20119;-57
2023/07/23 06:25:57;;;;;;;12.02;8.00;;;16.40;99.90;;;;;;5046820;28;20029;-57
2023/07/23 06:28:23;;;;;;;12.52;8.35;;;16.50;99.90;;;;;;5047425;28;20020;-57
2023/07/23 06:30:55;;;;;;;10.32;8.55;;;16.60;99.90;;;;;;5048814;28;20047;-57
2023/07/23 06:33:21;;;;;;;13.55;8.38;;;16.60;99.90;;;;;;5048042;28;20383;-56
2023/07/23 06:35:48;;;;;;;12.30;8.85;;;16.70;99.90;;;;;;5048166;28;20028;-56
2023/07/23 06:38:14;;;;;;;11.95;8.43;;;16.70;99.90;;;;;;5047708;28;20107;-57
2023/07/23 06:40:51;;;;;;;12.35;8.73;;;16.70;99.90;;;;;;5048030;28;20017;-56
2023/07/23 06:43:17;;;;;;;13.85;7.82;;;16.80;99.90;;;;;;5048059;28;20021;-56
2023/07/23 06:45:44;;;;;;;14.65;7.78;;;16.90;99.90;;;;;;5048693;28;20014;-57
2023/07/23 06:48:10;;;;;;;12.00;8.00;;;17.00;99.90;;;;;;5048226;28;20025;-56
2023/07/23 06:50:36;;;;;;;8.90;7.00;;;17.10;99.90;;;;;;5042600;28;20108;-57
2023/07/23 06:53:01;;;;;;;10.27;7.70;;;17.20;99.90;;;;;;5038544;28;20034;-56
2023/07/23 06:55:27;;;;;;;8.27;6.38;;;17.30;99.90;;;;;;5047626;28;20033;-57
2023/07/23 06:57:52;;;;;;;12.18;8.18;;;17.40;99.90;;;;;;5048193;28;20167;-57
2023/07/23 07:00:18;;;;;;;10.43;7.38;;;17.50;99.90;;;;;;5051196;28;20101;-57
2023/07/23 07:02:43;;;;;;;10.45;6.85;;;17.70;99.90;;;;;;5051968;28;20383;-57
2023/07/23 07:05:09;;;;;;;9.15;7.15;;;17.80;99.90;;;;;;5048908;28;20494;-56
2023/07/23 07:07:35;;;;;;;8.68;6.85;;;18.00;99.90;;;;;;5048686;28;20581;-57
2023/07/23 07:10:07;;;;;;;11.10;7.22;;;18.30;99.90;;;;;;5048788;28;20028;-56
2023/07/23 07:12:33;;;;;;;10.90;7.40;;;18.30;99.90;;;;;;5051661;28;20024;-57
2023/07/23 07:14:58;;;;;;;12.85;8.02;;;18.20;99.90;;;;;;5051784;28;20029;-56
2023/07/23 07:17:24;;;;;;;11.65;7.60;;;18.10;99.90;;;;;;5049989;28;20032;-56
2023/07/23 07:19:50;;;;;;;15.88;9.00;;;18.30;99.90;;;;;;5051449;28;20033;-56
2023/07/23 07:22:16;;;;;;;12.07;7.93;;;18.30;99.90;;;;;;5051895;28;20040;-56
2023/07/23 07:24:41;;;;;;;11.07;7.90;;;18.40;99.90;;;;;;5050416;28;20024;-56
2023/07/23 07:27:09;;;;;;;12.95;7.85;;;18.50;99.90;;;;;;5052109;28;20025;-56
2023/07/23 07:29:39;;;;;;;12.15;7.72;;;18.80;99.90;;;;;;5048211;28;20040;-56
2023/07/23 07:32:06;;;;;;;13.82;8.23;;;19.00;99.90;;;;;;5046824;28;20025;-55
2023/07/23 07:34:31;;;;;;;11.25;8.38;;;19.20;99.90;;;;;;5051643;28;20043;-57
2023/07/23 07:36:57;;;;;;;10.65;7.60;;;19.20;99.90;;;;;;5046277;28;20059;-56
2023/07/23 07:39:22;;;;;;;12.05;7.60;;;19.30;99.90;;;;;;5048810;28;20060;-56
2023/07/23 07:41:48;;;;;;;12.40;7.75;;;19.30;99.90;;;;;;5042505;28;20049;-56
2023/07/23 07:44:13;;;;;;;10.77;7.00;;;19.40;99.90;;;;;;5051054;28;20037;-56
2023/07/23 07:46:39;;;;;;;9.00;6.88;;;19.40;99.90;;;;;;5051179;28;20021;-56
2023/07/23 07:49:05;;;;;;;12.57;7.97;;;19.50;99.90;;;;;;5051062;28;20363;-56
2023/07/23 07:51:30;;;;;;;12.00;7.80;;;19.50;99.90;;;;;;5050932;28;20041;-56
2023/07/23 07:53:56;;;;;;;11.90;7.70;;;19.70;99.90;;;;;;5050947;28;20048;-55
2023/07/23 07:56:22;;;;;;;11.85;7.25;;;19.80;99.90;;;;;;5049677;28;20028;-56
2023/07/23 07:58:47;;;;;;;9.85;7.30;;;19.80;99.90;;;;;;5050996;28;20371;-55
2023/07/23 08:01:14;;;;;;;13.75;6.57;;;19.90;99.90;;;;;;5050757;28;20108;-55
2023/07/23 08:03:39;;;;;;;9.98;6.88;;;20.10;99.90;;;;;;5050258;28;20021;-55
2023/07/23 08:06:05;;;;;;;10.73;6.70;;;20.30;99.90;;;;;;5050988;28;20024;-57
2023/07/23 08:08:34;;;;;;;9.68;6.68;;;20.30;99.90;;;;;;5050972;28;20021;-56
2023/07/23 08:11:01;;;;;;;12.18;6.45;;;20.40;99.90;;;;;;5050144;28;20304;-57
2023/07/23 08:13:27;;;;;;;8.52;6.03;;;20.40;99.90;;;;;;5048849;28;20036;-56
2023/07/23 08:15:54;;;;;;;7.88;6.00;;;20.50;99.90;;;;;;5050810;28;20029;-56
2023/07/23 08:18:20;;;;;;;9.10;6.63;;;20.60;99.90;;;;;;5050449;28;20116;-56
2023/07/23 08:20:46;;;;;;;8.68;5.70;;;20.70;99.90;;;;;;5050586;28;20060;-56
2023/07/23 08:23:12;;;;;;;10.48;6.65;;;20.80;99.90;;;;;;5050094;28;20077;-57
2023/07/23 08:25:38;;;;;;;7.88;5.93;;;20.90;99.90;;;;;;5049309;28;20446;-56
2023/07/23 08:28:06;;;;;;;11.00;6.18;;;21.00;99.90;;;;;;5050485;28;20025;-56
2023/07/23 08:30:32;;;;;;;7.57;5.93;;;21.00;99.90;;;;;;5045539;28;20544;-55
2023/07/23 08:32:59;;;;;;;10.73;6.07;;;21.20;99.90;;;;;;5041979;28;20167;-56
2023/07/23 08:35:27;;;;;;;7.72;5.90;;;21.50;99.90;;;;;;5043987;28;20021;-57
2023/07/23 08:37:55;;;;;;;10.35;6.15;;;21.70;99.90;;;;;;5042319;28;20382;-56
2023/07/23 08:40:23;;;;;;;7.75;6.05;;;22.00;99.90;;;;;;5040216;28;20476;-57
2023/07/23 08:42:54;;;;;;;7.07;5.72;;;22.00;99.90;;;;;;5040724;28;20037;-56
2023/07/23 08:45:35;;;;;;;6.53;5.57;;;22.30;99.90;;;;;;5038903;28;20100;-56
2023/07/23 08:48:12;;;;;;;;;;;22.30;99.50;;;;;;5041975;28;20222;-55
2023/07/23 08:50:39;;;;;;;9.40;5.20;;;22.20;99.40;;;;;;5044540;28;19904;-56
2023/07/23 08:53:06;;;;;;;9.38;5.63;;;22.20;98.80;;;;;;5038852;28;20021;-56
2023/07/23 08:55:32;;;;;;;5.72;5.03;;;22.10;99.00;;;;;;5035111;28;20033;-56
2023/07/23 08:57:58;;;;;;;7.97;5.40;;;22.30;98.80;;;;;;5049402;28;20090;-56
2023/07/23 09:00:27;;;;;;;6.85;5.45;;;22.40;98.60;;;;;;5049559;28;20025;-56
2023/07/23 09:02:53;;;;;;;9.63;5.78;;;22.50;98.10;;;;;;5049138;28;20023;-56
2023/07/23 09:05:18;;;;;;;6.82;5.13;;;22.60;98.00;;;;;;5049607;28;20100;-56
2023/07/23 09:07:44;;;;;;;5.82;4.93;;;22.80;97.90;;;;;;5049470;28;20029;-56
2023/07/23 09:10:09;;;;;;;8.10;5.18;;;23.20;98.10;;;;;;5049489;28;20041;-56
2023/07/23 09:12:40;;;;;;;8.35;5.18;;;23.70;97.10;;;;;;5049046;28;20033;-56
2023/07/23 09:15:06;;;;;;;9.57;4.90;;;24.00;95.20;;;;;;5048245;28;20024;-56
2023/07/23 09:17:32;;;;;;;8.43;4.90;;;24.10;94.90;;;;;;5049514;28;20025;-56
2023/07/23 09:19:58;;;;;;;11.68;5.28;;;24.20;93.90;;;;;;5049387;28;20027;-56
2023/07/23 09:22:24;;;;;;;7.45;4.60;;;24.20;92.70;;;;;;5047805;28;20501;-57
2023/07/23 09:24:49;;;;;;;4.70;3.90;;;24.70;92.80;;;;;;5049421;28;20029;-57
2023/07/23 09:27:16;;;;;;;6.15;4.43;;;25.30;92.00;;;;;;5049329;28;20034;-56
2023/07/23 09:29:42;;;;;;;5.20;4.10;;;25.90;90.20;;;;;;5048728;28;20029;-56
2023/07/23 09:32:25;;;;;;;5.50;3.67;;;26.70;87.40;;;;;;5041999;28;20192;-57
2023/07/23 09:34:51;;;;;;;6.70;4.20;;;27.60;82.40;;;;;;5044401;28;20492;-57
2023/07/23 09:37:17;;;;;;;5.90;4.20;;;27.60;80.10;;;;;;5048733;28;20031;-56
2023/07/23 09:39:43;;;;;;;4.82;3.92;;;27.40;78.40;;;;;;5051789;28;20096;-57
2023/07/23 09:42:10;;;;;;;6.72;3.97;;;26.40;79.90;;;;;;5067473;28;20028;-56
2023/07/23 09:44:39;;;;;;;5.70;4.38;;;26.10;81.20;;;;;;5057599;28;20040;-57
2023/07/23 09:47:05;;;;;;;7.93;3.73;;;26.00;81.70;;;;;;5048438;28;20442;-57
2023/07/23 09:49:31;;;;;;;9.07;4.18;;;25.70;81.40;;;;;;5048582;28;20071;-56
2023/07/23 09:51:57;;;;;;;4.90;4.00;;;25.10;81.80;;;;;;5068317;28;20036;-56
2023/07/23 09:54:22;;;;;;;6.00;4.43;;;25.10;83.30;;;;;;5051081;28;20033;-56
2023/07/23 09:56:51;;;;;;;5.18;3.88;;;24.70;81.60;;;;;;5052405;28;20059;-56
2023/07/23 09:59:17;;;;;;;6.45;4.30;;;24.50;82.40;;;;;;5068322;28;20021;-56
2023/07/23 10:01:43;;;;;;;6.18;4.32;;;24.30;82.50;;;;;;5055719;28;20017;-56
2023/07/23 10:04:11;;;;;;;7.50;3.80;;;24.30;82.50;;;;;;5062863;28;20032;-56
2023/07/23 10:06:37;;;;;;;6.00;3.92;;;24.10;81.90;;;;;;5057703;28;20611;-56
2023/07/23 10:09:03;;;;;;;11.75;3.75;;;24.00;82.70;;;;;;5047420;28;20082;-56
2023/07/23 10:11:28;;;;;;;4.75;3.63;;;24.00;81.40;;;;;;5058051;28;20024;-56
2023/07/23 10:13:55;;;;;;;5.55;3.65;;;24.20;82.00;;;;;;5062470;28;20036;-55
2023/07/23 10:16:29;;;;;;;5.22;3.95;;;24.20;81.30;;;;;;5064699;28;20043;-56
2023/07/23 10:18:57;;;;;;;6.63;4.00;;;24.20;80.70;;;;;;5054554;28;20139;-56
2023/07/23 10:21:22;;;;;;;4.47;3.78;;;24.70;81.00;;;;;;5062507;28;20078;-55
2023/07/23 10:23:58;;;;;;;5.82;3.97;;;25.10;80.60;;;;;;5055866;28;20336;-56
2023/07/23 10:26:39;;;;;;;11.18;3.80;;;25.30;80.80;;;;;;5048524;28;20030;-56
2023/07/23 10:29:14;;;;;;;8.25;3.72;;;25.40;80.20;;;;;;5068498;28;20473;-56
2023/07/23 10:31:40;;;;;;;7.43;4.20;;;25.30;80.90;;;;;;5051067;28;20033;-56
2023/07/23 10:34:27;;;;;;;5.80;3.85;;;25.60;79.70;;;;;;5061531;28;20120;-56
2023/07/23 10:37:12;;;;;;;4.00;3.60;;;26.00;78.90;;;;;;5044880;28;20537;-55
2023/07/23 10:39:43;;;;;;;5.50;4.00;;;25.80;78.00;;;;;;5064334;28;20397;-56
2023/07/23 10:42:09;;;;;;;9.93;3.45;;;25.70;77.40;;;;;;5047958;28;20033;-57
2023/07/23 10:44:38;;;;;;;7.18;4.00;;;25.40;79.20;;;;;;5064223;28;20028;-57
2023/07/23 10:47:32;;;;;;;7.40;4.30;;;25.40;78.40;;;;;;5048364;28;20066;-57
2023/07/23 10:50:12;;;;;;;6.05;3.85;;;25.90;78.20;;;;;;5053096;28;20032;-56
2023/07/23 10:52:37;;;;;;;5.32;3.15;;;25.60;76.70;;;;;;5063668;28;20040;-57
2023/07/23 10:55:04;;;;;;;4.47;3.25;;;25.60;76.10;;;;;;5053110;28;20024;-56
2023/07/23 10:57:31;;;;;;;6.72;3.55;;;25.50;76.60;;;;;;5065094;28;20516;-56
2023/07/23 10:59:56;;;;;;;7.15;3.85;;;25.40;77.00;;;;;;5052146;28;20469;-56
2023/07/23 11:02:26;;;;;;;4.13;3.42;;;25.50;76.50;;;;;;5066868;28;20032;-56
2023/07/23 11:04:57;;;;;;;5.13;3.83;;;25.90;76.50;;;;;;5047881;28;20121;-56
2023/07/23 11:07:28;;;;;;;7.30;3.33;;;25.80;75.00;;;;;;5055670;28;20494;-56
2023/07/23 11:09:55;;;;;;;4.55;3.33;;;26.00;76.00;;;;;;5062996;28;20486;-56
2023/07/23 11:12:22;;;;;;;3.97;3.10;;;26.40;76.10;;;;;;5053572;28;20037;-55
2023/07/23 11:14:48;;;;;;;5.55;3.38;;;26.70;73.90;;;;;;5051784;28;20052;-55
2023/07/23 11:17:13;;;;;;;6.13;3.65;;;27.40;73.80;;;;;;5060333;28;20474;-55
2023/07/23 11:19:46;;;;;;;5.70;3.55;;;27.40;72.60;;;;;;5047733;28;20547;-56
2023/07/23 11:22:12;;;;;;;4.78;3.42;;;27.10;71.00;;;;;;5062633;28;20024;-55
2023/07/23 11:24:40;;;;;;;5.07;3.85;;;26.70;69.20;;;;;;5058527;28;20017;-55
2023/07/23 11:27:05;;;;;;;4.93;3.70;;;26.00;70.80;;;;;;5067743;28;20028;-56
2023/07/23 11:29:31;;;;;;;3.88;3.47;;;25.70;71.50;;;;;;5048073;28;20021;-55
2023/07/23 11:31:59;;;;;;;5.50;3.28;;;25.40;72.80;;;;;;5060203;28;20461;-55
2023/07/23 11:34:25;;;;;;;7.03;3.17;;;25.00;72.50;;;;;;5057096;28;20104;-55
2023/07/23 11:36:53;;;;;;;8.05;3.47;;;24.70;73.70;;;;;;5047414;28;20501;-55
2023/07/23 11:39:19;;;;;;;5.05;3.40;;;24.40;73.30;;;;;;5047494;28;20036;-56
2023/07/23 11:41:45;;;;;;;7.05;3.70;;;24.20;73.40;;;;;;5047413;28;20041;-55
2023/07/23 11:44:12;;;;;;;5.63;3.30;;;24.00;73.30;;;;;;5046915;28;20384;-55
2023/07/23 11:46:39;;;;;;;13.05;3.80;;;23.90;74.10;;;;;;5050723;28;20029;-55
2023/07/23 11:49:06;;;;;;;5.97;2.90;;;23.80;74.20;;;;;;5051319;28;20028;-55
2023/07/23 11:51:33;;;;;;;5.35;3.88;;;23.60;75.70;;;;;;5051074;28;20051;-55
2023/07/23 11:54:00;;;;;;;5.00;3.45;;;23.50;75.60;;;;;;5051282;28;20029;-55
2023/07/23 11:56:26;;;;;;;8.13;3.15;;;23.50;76.10;;;;;;5050793;28;20056;-55
2023/07/23 11:58:52;;;;;;;7.78;3.58;;;23.50;76.70;;;;;;5050698;28;20514;-55
2023/07/23 12:01:17;;;;;;;3.83;3.15;;;23.50;75.50;;;;;;5057968;28;20390;-55
2023/07/23 12:03:45;;;;;;;8.88;3.53;;;23.50;76.40;;;;;;5067363;28;20399;-55
2023/07/23 12:06:15;;;;;;;6.20;4.00;;;23.50;75.40;;;;;;5050766;28;20029;-56
2023/07/23 12:08:45;;;;;;;5.38;4.00;;;23.60;75.90;;;;;;5050827;28;20029;-55
2023/07/23 12:11:15;;;;;;;10.52;3.50;;;23.50;76.50;;;;;;5050456;28;20489;-55
2023/07/23 12:14:06;;;;;;;5.95;3.25;;;23.60;76.30;;;;;;5049092;28;20112;-55
2023/07/23 12:16:43;;;;;;;4.95;3.10;;;23.50;76.30;;;;;;5050155;28;20116;-55
2023/07/23 12:19:14;;;;;;;6.65;3.22;;;23.60;77.70;;;;;;5050442;28;20025;-54
2023/07/23 12:21:42;;;;;;;4.88;2.90;;;23.50;76.80;;;;;;5050095;28;20091;-54
2023/07/23 12:24:26;;;;;;;7.68;3.63;;;23.50;76.70;;;;;;5050107;28;20079;-54
2023/07/23 12:26:53;;;;;;;4.70;3.30;;;23.40;77.60;;;;;;5050308;28;20032;-54
2023/07/23 12:29:20;;;;;;;6.07;3.58;;;23.30;77.70;;;;;;5040776;28;20029;-54
2023/07/23 12:31:48;;;;;;;7.40;3.58;;;23.20;78.10;;;;;;5047858;28;20060;-55
2023/07/23 12:34:15;;;;;;;5.53;3.60;;;23.10;78.20;;;;;;5048153;28;20053;-55